createdAt,value
2022-12-13T00:06:31.345Z,29.25
2022-12-13T00:11:35.499Z,30.63
2022-12-13T00:16:39.008Z,27.02
2022-12-13T00:21:42.421Z,24.58
2022-12-13T00:26:46.143Z,32.38
2022-12-13T00:32:04.670Z,23.50
2022-12-13T00:37:08.157Z,25.42
2022-12-13T00:42:11.789Z,23.48
2022-12-13T00:47:15.228Z,25.83
2022-12-13T00:52:18.591Z,30.73
2022-12-13T00:57:21.996Z,22.95
2022-12-13T01:02:31.171Z,31.08
2022-12-13T01:07:42.821Z,27.85
2022-12-13T01:12:46.066Z,24.80
2022-12-13T01:22:52.531Z,28.25
2022-12-13T01:27:57.065Z,24.83
2022-12-13T01:33:00.405Z,25.08
2022-12-13T01:38:15.478Z,27.05
2022-12-13T01:43:19.459Z,27.88
2022-12-13T01:53:35.837Z,27.15
2022-12-13T01:58:41.069Z,23.05
2022-12-13T02:03:46.131Z,26.58
2022-12-13T02:08:50.215Z,23.42
2022-12-13T02:13:54.103Z,24.00
2022-12-13T02:19:34.537Z,22.70
2022-12-13T02:24:49.808Z,19.70
2022-12-13T02:30:23.194Z,20.80
2022-12-13T02:35:47.316Z,26.65
2022-12-13T02:41:07.381Z,27.95
2022-12-13T02:46:13.028Z,23.63
2022-12-13T02:51:18.084Z,23.30
2022-12-13T02:56:21.510Z,25.60
2022-12-13T03:02:09.813Z,26.00
2022-12-13T03:07:34.031Z,46.13
2022-12-13T03:13:04.447Z,44.08
2022-12-13T03:18:13.636Z,55.40
2022-12-13T03:23:20.429Z,48.42
2022-12-13T03:28:24.297Z,49.38
2022-12-13T03:33:27.703Z,48.28
2022-12-13T03:38:31.354Z,57.38
2022-12-13T03:43:34.857Z,45.58
2022-12-13T03:48:38.415Z,45.30
2022-12-13T03:53:41.910Z,45.65
2022-12-13T04:03:50.823Z,39.78
2022-12-13T04:08:54.385Z,34.35
2022-12-13T04:13:57.877Z,33.90
2022-12-13T04:19:01.379Z,36.35
2022-12-13T04:24:05.950Z,35.80
2022-12-13T04:29:10.546Z,31.58
2022-12-13T04:34:13.793Z,32.50
2022-12-13T04:44:29.068Z,24.52
2022-12-13T04:49:34.229Z,26.98
2022-12-13T04:54:37.818Z,21.98
2022-12-13T04:59:41.484Z,30.70
2022-12-13T05:04:54.140Z,30.52
2022-12-13T05:10:32.094Z,23.02
2022-12-13T05:15:37.115Z,25.52
2022-12-13T05:20:40.443Z,18.50
2022-12-13T05:25:43.879Z,17.20
2022-12-13T05:30:49.505Z,26.05
2022-12-13T05:35:57.800Z,26.33
2022-12-13T05:41:05.155Z,23.05
2022-12-13T05:46:09.258Z,20.75
2022-12-13T05:51:14.713Z,17.60
2022-12-13T05:56:22.830Z,20.45
2022-12-13T06:01:27.017Z,20.13
2022-12-13T06:06:30.447Z,26.02
2022-12-13T06:11:34.054Z,24.27
2022-12-13T06:16:37.477Z,27.08
2022-12-13T06:21:45.773Z,22.15
2022-12-13T06:26:52.409Z,19.38
2022-12-13T06:32:02.500Z,26.85
2022-12-13T06:37:09.393Z,25.77
2022-12-13T06:42:22.318Z,23.38
2022-12-13T06:47:30.968Z,34.70
2022-12-13T06:52:36.523Z,35.63
2022-12-13T06:57:40.611Z,24.65
2022-12-13T07:02:52.572Z,25.90
2022-12-13T07:07:56.802Z,26.70
2022-12-13T07:13:00.239Z,26.77
2022-12-13T07:18:04.040Z,27.98
2022-12-13T07:23:07.803Z,29.60
2022-12-13T07:28:11.201Z,24.67
2022-12-13T07:33:21.960Z,44.35
2022-12-13T07:38:26.145Z,33.70
2022-12-13T07:43:29.630Z,40.33
2022-12-13T07:48:42.776Z,42.35
2022-12-13T07:53:59.604Z,38.67
2022-12-13T07:59:11.400Z,33.00
2022-12-13T08:04:27.746Z,24.00
2022-12-13T08:09:36.246Z,30.88
2022-12-13T08:14:39.657Z,26.50
2022-12-13T08:19:44.868Z,21.45
2022-12-13T08:24:48.954Z,35.03
2022-12-13T08:29:52.349Z,29.00
2022-12-13T08:34:58.051Z,58.55
2022-12-13T08:40:02.480Z,40.40
2022-12-13T08:45:07.164Z,31.63
2022-12-13T08:50:10.563Z,34.92
2022-12-13T08:55:15.915Z,72.68
2022-12-13T09:00:20.536Z,44.05
2022-12-13T09:05:34.042Z,35.47
2022-12-13T09:10:38.851Z,24.08
2022-12-13T09:15:46.243Z,31.98
2022-12-13T09:20:51.442Z,39.20
2022-12-13T09:26:05.491Z,40.13
2022-12-13T09:31:12.412Z,35.20
2022-12-13T09:36:26.957Z,38.08
2022-12-13T09:42:00.614Z,29.48
2022-12-13T09:47:14.293Z,43.75
2022-12-13T09:52:21.800Z,49.22
2022-12-13T09:57:31.187Z,28.10
2022-12-13T10:02:49.752Z,24.37
2022-12-13T10:07:55.986Z,40.30
2022-12-13T10:13:14.483Z,45.58
2022-12-13T10:18:41.816Z,46.22
2022-12-13T10:24:23.186Z,39.13
2022-12-13T10:29:10.512Z,40.80
2022-12-13T10:34:35.628Z,55.20
2022-12-13T10:39:43.616Z,87.20
2022-12-13T10:44:47.465Z,56.47
2022-12-13T10:49:58.904Z,84.47
2022-12-13T10:55:23.064Z,62.97
2022-12-13T11:00:32.346Z,46.40
2022-12-13T11:05:37.484Z,67.82
2022-12-13T11:10:41.061Z,54.70
2022-12-13T11:15:44.876Z,33.13
2022-12-13T11:20:58.009Z,52.55
2022-12-13T11:26:09.157Z,49.70
2022-12-13T11:31:24.417Z,56.53
2022-12-13T11:36:46.505Z,39.13
2022-12-13T11:41:55.112Z,52.00
2022-12-13T11:47:01.254Z,34.58
2022-12-13T11:52:15.612Z,36.08
2022-12-13T11:57:49.164Z,36.03
2022-12-13T12:02:59.383Z,81.90
2022-12-13T12:08:33.314Z,49.95
2022-12-13T12:13:53.784Z,55.53
2022-12-13T12:19:01.974Z,58.67
2022-12-13T12:24:17.564Z,61.20
2022-12-13T12:29:22.248Z,39.28
2022-12-13T12:34:44.254Z,67.30
2022-12-13T12:40:23.556Z,80.53
2022-12-13T12:45:56.948Z,47.60
2022-12-13T12:51:12.982Z,56.05
2022-12-13T12:56:43.128Z,41.55
2022-12-13T13:01:57.360Z,39.72
2022-12-13T13:07:06.617Z,45.80
2022-12-13T13:12:29.001Z,41.10
2022-12-13T13:17:34.045Z,44.08
2022-12-13T13:22:43.466Z,53.28
2022-12-13T13:27:50.685Z,114.43
2022-12-13T13:32:58.514Z,46.67
2022-12-13T13:38:05.518Z,46.38
2022-12-13T13:43:12.298Z,54.55
2022-12-13T13:48:15.830Z,61.35
2022-12-13T13:53:25.075Z,43.53
2022-12-13T13:59:14.131Z,52.25
2022-12-13T14:04:47.803Z,42.13
2022-12-13T14:10:12.517Z,44.75
2022-12-13T14:15:25.432Z,45.00
2022-12-13T14:20:56.435Z,46.25
2022-12-13T14:26:24.359Z,45.10
2022-12-13T14:31:36.931Z,51.35
2022-12-13T14:37:06.876Z,47.42
2022-12-13T14:42:48.121Z,41.25
2022-12-13T14:47:54.473Z,43.55
2022-12-13T14:52:58.151Z,47.10
2022-12-13T14:58:03.260Z,44.17
2022-12-13T15:03:07.994Z,39.53
2022-12-13T15:08:15.829Z,47.60
2022-12-13T15:13:29.351Z,50.80
2022-12-13T15:18:34.857Z,41.08
2022-12-13T15:23:49.240Z,55.25
2022-12-13T15:29:10.387Z,42.42
2022-12-13T15:34:30.797Z,44.75
2022-12-13T15:39:40.175Z,49.67
2022-12-13T15:44:49.504Z,46.63
2022-12-13T15:49:52.899Z,40.38
2022-12-13T15:55:00.287Z,42.63
2022-12-13T16:00:19.021Z,50.00
2022-12-13T16:05:30.816Z,40.03
2022-12-13T16:10:35.126Z,50.85
2022-12-13T16:15:51.804Z,47.72
2022-12-13T16:21:15.943Z,38.60
2022-12-13T16:26:48.871Z,42.25
2022-12-13T16:32:08.247Z,37.20
2022-12-13T16:37:26.816Z,49.38
2022-12-13T16:42:31.618Z,37.95
2022-12-13T16:47:41.726Z,42.72
2022-12-13T16:52:54.581Z,31.63
2022-12-13T16:58:15.720Z,40.20
2022-12-13T17:03:19.232Z,38.08
2022-12-13T17:08:23.781Z,43.00
2022-12-13T17:13:28.489Z,35.10
2022-12-13T17:18:33.518Z,38.10
2022-12-13T17:23:41.501Z,38.58
2022-12-13T17:28:46.111Z,39.28
2022-12-13T17:33:49.499Z,36.88
2022-12-13T17:38:54.233Z,37.30
2022-12-13T17:44:00.635Z,41.28
2022-12-13T17:49:04.141Z,34.78
2022-12-13T17:54:08.971Z,45.67
2022-12-13T17:59:14.421Z,34.58
2022-12-13T18:04:19.349Z,42.20
2022-12-13T18:09:22.632Z,33.60
2022-12-13T18:14:26.984Z,44.53
2022-12-13T18:19:30.461Z,45.72
2022-12-13T18:24:33.776Z,31.48
2022-12-13T18:29:37.312Z,43.72
2022-12-13T18:34:40.634Z,34.28
2022-12-13T18:44:58.431Z,40.40
2022-12-13T18:50:02.130Z,41.15
2022-12-13T18:55:06.704Z,49.45
2022-12-13T19:00:10.426Z,39.58
2022-12-13T19:05:13.932Z,36.17
2022-12-13T19:10:17.817Z,35.50
2022-12-13T19:15:21.397Z,40.15
2022-12-13T19:20:25.400Z,37.38
2022-12-13T19:25:29.473Z,40.50
2022-12-13T19:30:35.876Z,39.08
2022-12-13T19:35:49.857Z,49.70
2022-12-13T19:40:53.474Z,46.85
2022-12-13T19:45:57.005Z,42.42
2022-12-13T19:51:07.322Z,54.53
2022-12-13T19:56:14.511Z,48.60
2022-12-13T20:01:18.780Z,43.67
2022-12-13T20:06:23.179Z,48.88
2022-12-13T20:11:26.645Z,40.70
2022-12-13T20:16:29.963Z,40.60
2022-12-13T20:21:33.912Z,43.67
2022-12-13T20:26:38.738Z,46.67
2022-12-13T20:31:42.828Z,37.72
2022-12-13T20:36:52.114Z,42.72
2022-12-13T20:41:55.617Z,41.10
2022-12-13T20:47:04.322Z,41.35
2022-12-13T20:52:07.741Z,46.42
2022-12-13T20:57:11.499Z,52.63
2022-12-13T21:02:15.053Z,45.03
2022-12-13T21:07:18.584Z,44.40
2022-12-13T21:12:32.645Z,51.20
2022-12-13T21:17:48.158Z,44.35
2022-12-13T21:22:51.575Z,46.38
2022-12-13T21:27:55.317Z,42.85
2022-12-13T21:38:05.317Z,51.10
2022-12-13T21:43:08.887Z,38.88
2022-12-13T21:48:12.491Z,42.58
2022-12-13T21:53:16.216Z,43.65
2022-12-13T21:58:23.766Z,33.63
2022-12-13T22:03:27.415Z,41.92
2022-12-13T22:08:30.750Z,43.42
2022-12-13T22:13:34.873Z,34.60
2022-12-13T22:18:38.341Z,42.72
2022-12-13T22:23:41.730Z,42.75
2022-12-13T22:28:45.595Z,35.60
2022-12-13T22:33:49.270Z,42.40
2022-12-13T22:38:54.964Z,36.60
2022-12-13T22:43:59.199Z,43.65
2022-12-13T22:49:02.494Z,51.20
2022-12-13T22:59:09.154Z,49.00
2022-12-13T23:04:12.579Z,40.67
2022-12-13T23:09:15.818Z,43.38
2022-12-13T23:14:28.173Z,51.28
2022-12-13T23:19:41.662Z,53.08
2022-12-13T23:24:54.576Z,61.63
2022-12-13T23:29:57.889Z,63.60
2022-12-13T23:35:01.388Z,57.00
2022-12-13T23:40:07.218Z,56.95
2022-12-13T23:45:10.662Z,57.28
2022-12-13T23:50:14.184Z,54.85
2022-12-13T23:55:17.939Z,52.08
